Laguepe — 9HAI9 — position and weather

sailwx.info

Track history (hours):
 
Tides and Currents Weather Stations Pressure Air Temp Water Temp Dewpoint Dewpoint Depression Visibility Wind Speed Wind Dir Waves Ship Positions

Laguepe

Last reported at 2014-Jul-29 20:33 UTC. Time now 2014-Jul-31 19:38 UTC.
Position N 43°23' E 004°48'.

Length 81 m; draft 2.8 m.

Type: Cargo ship. MMSI: 256681000.

Date/timePositionNaut miles runAvg speedWind from/ knotsBaromVisibWave heightAir tempDewpointWater temp
2014-Jul-29 20:33N 43°23' E 004°48'1 0.6
2014-Jul-29 19:33N 43°23' E 004°49'7 6.8
2014-Jul-29 18:33N 43°22' E 004°58'7 7.0
2014-Jul-29 17:33N 43°17' E 005°05'7 6.9
2014-Jul-29 16:33N 43°13' E 005°13'20 6.3
2014-Jul-29 13:21N 43°05' E 005°39'6 6.6
2014-Jul-29 12:31N 43°03' E 005°46'6 6.5
2014-Jul-29 11:33N 43°01' E 005°54'6 5.8
2014-Jul-29 10:33N 42°59' E 006°01'7 6.8
2014-Jul-29 09:33N 42°57' E 006°10'8 7.6
2014-Jul-29 08:33N 42°56' E 006°20'7 7.1
2014-Jul-29 07:33N 42°58' E 006°30'9 8.6
2014-Jul-29 06:33N 43°04' E 006°38'9 9.0
2014-Jul-29 05:33N 43°09' E 006°48'9 9.3
2014-Jul-29 04:33N 43°14' E 006°59'9 8.9
2014-Jul-29 03:33N 43°19' E 007°09'8 8.4
2014-Jul-29 02:33N 43°24' E 007°19'10 7.4
2014-Jul-29 01:15N 43°29' E 007°30'5 7.2
2014-Jul-29 00:29N 43°32' E 007°36'47 7.5
2014-Jul-28 18:10N 44°04' E 008°25'5 8.4
2014-Jul-28 17:33N 44°08' E 008°29'9 7.6
2014-Jul-28 16:22N 44°17' E 008°32'2 2.1
2014-Jul-28 15:15N 44°19' E 008°30'0 0.0
2014-Jul-28 11:21N 44°19' E 008°30'0 0.0
2014-Jul-28 04:30N 44°19' E 008°30'2 2.4
2014-Jul-28 03:33N 44°17' E 008°32'5 4.8
2014-Jul-28 02:33N 44°12' E 008°32'7 6.6
2014-Jul-28 01:33N 44°07' E 008°27'6 6.3
2014-Jul-28 00:33N 44°01' E 008°23'6 5.8
2014-Jul-27 23:33N 43°56' E 008°19'5 5.4
2014-Jul-27 22:33N 43°52' E 008°15'5 5.5
2014-Jul-27 21:33N 43°48' E 008°09'7 7.2
2014-Jul-27 20:33N 43°44' E 008°01'7 7.2
2014-Jul-27 19:33N 43°40' E 007°53'7 7.1
2014-Jul-27 18:33N 43°36' E 007°45'8 7.2
2014-Jul-27 17:25N 43°31' E 007°35'10 7.7
2014-Jul-27 16:05N 43°26' E 007°24'5 7.7
2014-Jul-27 15:25N 43°23' E 007°18'7 7.7
2014-Jul-27 14:33N 43°19' E 007°10'8 7.6
2014-Jul-27 13:28N 43°15' E 007°00'7 7.3
2014-Jul-27 12:33N 43°11' E 006°53'7 6.8
2014-Jul-27 11:33N 43°07' E 006°45'6 5.6
2014-Jul-27 10:33N 43°04' E 006°39'6 5.9
2014-Jul-27 09:29N 42°59' E 006°33'5 5.6
2014-Jul-27 08:33N 42°58' E 006°26'6 6.0
2014-Jul-27 07:33N 42°57' E 006°18'6 5.7
2014-Jul-27 06:33N 42°58' E 006°10'6 5.5
2014-Jul-27 05:33N 42°59' E 006°03'6 6.1
2014-Jul-27 04:33N 43°01' E 005°55'6 6.3
2014-Jul-27 03:33N 43°03' E 005°46'7 6.8
2014-Jul-27 02:32N 43°05' E 005°38'15 6.4
2014-Jul-27 00:12N 43°11' E 005°19'6 6.4
2014-Jul-26 23:18N 43°14' E 005°12'5 6.3
2014-Jul-26 22:33N 43°16' E 005°06'6 6.2
2014-Jul-26 21:34N 43°19' E 004°59'7 6.7
2014-Jul-26 20:33N 43°23' E 004°52'3 2.5
2014-Jul-26 19:33N 43°23' E 004°48'0 0.1
2014-Jul-26 18:33N 43°23' E 004°48'0 0.0
2014-Jul-26 17:33N 43°23' E 004°48'0 0.0
2014-Jul-26 16:33N 43°23' E 004°48'0 0.0
2014-Jul-26 15:33N 43°23' E 004°48'0 0.0
2014-Jul-26 14:33N 43°23' E 004°48'  
2014-Jul-22 20:06N 43°23' E 004°48'0 0.1
2014-Jul-22 19:33N 43°23' E 004°49'4 4.2
2014-Jul-22 18:34N 43°24' E 004°54'5 5.1
2014-Jul-22 17:33N 43°20' E 004°59'5 5.3
2014-Jul-22 16:33N 43°17' E 005°05'6 5.5
2014-Jul-22 15:34N 43°14' E 005°11'5 5.0
2014-Jul-22 14:33N 43°11' E 005°17'21 6.7
2014-Jul-22 11:29N 43°03' E 005°43'6 6.8
2014-Jul-22 10:33N 43°00' E 005°51'7 6.6
2014-Jul-22 09:33N 42°58' E 005°59'7 7.0
2014-Jul-22 08:33N 42°56' E 006°09'7 7.0
2014-Jul-22 07:33N 42°56' E 006°18'6 6.4
2014-Jul-22 06:34N 42°58' E 006°26'9 8.8
2014-Jul-22 05:33N 43°03' E 006°36'9 9.3
2014-Jul-22 04:33N 43°08' E 006°47'9 8.9
2014-Jul-22 03:33N 43°14' E 006°57'8 8.5
2014-Jul-22 02:33N 43°18' E 007°07'9 8.6
2014-Jul-22 01:28N 43°23' E 007°18'16 8.6
2014-Jul-21 23:33N 43°32' E 007°36'60 8.4
2014-Jul-21 16:27N 44°17' E 008°32'3 2.9
2014-Jul-21 15:32N 44°19' E 008°30'0 0.0
2014-Jul-21 14:33N 44°19' E 008°30'0 0.0
2014-Jul-21 11:33N 44°19' E 008°30'0 0.0
2014-Jul-21 04:33N 44°19' E 008°30'3 2.5
2014-Jul-21 03:33N 44°17' E 008°32'7 6.6
2014-Jul-21 02:34N 44°10' E 008°30'7 7.1
2014-Jul-21 01:34N 44°04' E 008°25'8 7.2
2014-Jul-21 00:26N 43°57' E 008°19'6 7.2
2014-Jul-20 23:33N 43°52' E 008°15'39 7.3
2014-Jul-20 18:09N 43°29' E 007°30'7 7.1
2014-Jul-20 17:05N 43°25' E 007°21'5 7.1
2014-Jul-20 16:21N 43°22' E 007°15'5 6.8
2014-Jul-20 15:33N 43°19' E 007°09'6 6.3
2014-Jul-20 14:32N 43°15' E 007°02'6 5.7
2014-Jul-20 13:33N 43°12' E 006°55'6 5.7
2014-Jul-20 12:33N 43°09' E 006°49'6 6.1
2014-Jul-20 11:33N 43°06' E 006°42'6 6.2
2014-Jul-20 10:33N 43°03' E 006°35'6 6.2
2014-Jul-20 09:34N 42°59' E 006°27'6 6.0
2014-Jul-20 08:33N 42°58' E 006°20'7 6.5
2014-Jul-20 07:33N 42°58' E 006°11'7 7.3
2014-Jul-20 06:34N 42°60' E 006°01'8 7.6
2014-Jul-20 05:33N 43°02' E 005°51'7 7.3
2014-Jul-20 04:33N 43°04' E 005°42'8 6.8
2014-Jul-20 03:26N 43°07' E 005°32'6 6.9
2014-Jul-20 02:33N 43°09' E 005°24'6 6.3
2014-Jul-20 01:33N 43°12' E 005°17'6 6.3
2014-Jul-20 00:33N 43°15' E 005°09'6 6.2
2014-Jul-19 23:34N 43°18' E 005°02'5 5.1
2014-Jul-19 22:34N 43°22' E 004°57'6 6.4
2014-Jul-19 21:33N 43°23' E 004°49'  
Track history (hours):
 
Tides and Currents Weather Stations Pressure Air Temp Water Temp Dewpoint Dewpoint Depression Visibility Wind Speed Wind Dir Waves Ship Positions

Laguepe

Last reported at 2014-Jul-29 20:33 UTC. Time now 2014-Jul-31 19:38 UTC.
Position N 43°23' E 004°48'.

Length 81 m; draft 2.8 m.

Type: Cargo ship. MMSI: 256681000.

Date/timePositionNaut miles runAvg speedWind from/ knotsBaromVisibWave heightAir tempDewpointWater temp
2014-Jul-29 20:33N 43°23' E 004°48'1 0.6
2014-Jul-29 19:33N 43°23' E 004°49'7 6.8
2014-Jul-29 18:33N 43°22' E 004°58'7 7.0
2014-Jul-29 17:33N 43°17' E 005°05'7 6.9
2014-Jul-29 16:33N 43°13' E 005°13'20 6.3
2014-Jul-29 13:21N 43°05' E 005°39'6 6.6
2014-Jul-29 12:31N 43°03' E 005°46'6 6.5
2014-Jul-29 11:33N 43°01' E 005°54'6 5.8
2014-Jul-29 10:33N 42°59' E 006°01'7 6.8
2014-Jul-29 09:33N 42°57' E 006°10'8 7.6
2014-Jul-29 08:33N 42°56' E 006°20'7 7.1
2014-Jul-29 07:33N 42°58' E 006°30'9 8.6
2014-Jul-29 06:33N 43°04' E 006°38'9 9.0
2014-Jul-29 05:33N 43°09' E 006°48'9 9.3
2014-Jul-29 04:33N 43°14' E 006°59'9 8.9
2014-Jul-29 03:33N 43°19' E 007°09'8 8.4
2014-Jul-29 02:33N 43°24' E 007°19'10 7.4
2014-Jul-29 01:15N 43°29' E 007°30'5 7.2
2014-Jul-29 00:29N 43°32' E 007°36'47 7.5
2014-Jul-28 18:10N 44°04' E 008°25'5 8.4
2014-Jul-28 17:33N 44°08' E 008°29'9 7.6
2014-Jul-28 16:22N 44°17' E 008°32'2 2.1
2014-Jul-28 15:15N 44°19' E 008°30'0 0.0
2014-Jul-28 11:21N 44°19' E 008°30'0 0.0
2014-Jul-28 04:30N 44°19' E 008°30'2 2.4
2014-Jul-28 03:33N 44°17' E 008°32'5 4.8
2014-Jul-28 02:33N 44°12' E 008°32'7 6.6
2014-Jul-28 01:33N 44°07' E 008°27'6 6.3
2014-Jul-28 00:33N 44°01' E 008°23'6 5.8
2014-Jul-27 23:33N 43°56' E 008°19'5 5.4
2014-Jul-27 22:33N 43°52' E 008°15'5 5.5
2014-Jul-27 21:33N 43°48' E 008°09'7 7.2
2014-Jul-27 20:33N 43°44' E 008°01'7 7.2
2014-Jul-27 19:33N 43°40' E 007°53'7 7.1
2014-Jul-27 18:33N 43°36' E 007°45'8 7.2
2014-Jul-27 17:25N 43°31' E 007°35'10 7.7
2014-Jul-27 16:05N 43°26' E 007°24'5 7.7
2014-Jul-27 15:25N 43°23' E 007°18'7 7.7
2014-Jul-27 14:33N 43°19' E 007°10'8 7.6
2014-Jul-27 13:28N 43°15' E 007°00'7 7.3
2014-Jul-27 12:33N 43°11' E 006°53'7 6.8
2014-Jul-27 11:33N 43°07' E 006°45'6 5.6
2014-Jul-27 10:33N 43°04' E 006°39'6 5.9
2014-Jul-27 09:29N 42°59' E 006°33'5 5.6
2014-Jul-27 08:33N 42°58' E 006°26'6 6.0
2014-Jul-27 07:33N 42°57' E 006°18'6 5.7
2014-Jul-27 06:33N 42°58' E 006°10'6 5.5
2014-Jul-27 05:33N 42°59' E 006°03'6 6.1
2014-Jul-27 04:33N 43°01' E 005°55'6 6.3
2014-Jul-27 03:33N 43°03' E 005°46'7 6.8
2014-Jul-27 02:32N 43°05' E 005°38'15 6.4
2014-Jul-27 00:12N 43°11' E 005°19'6 6.4
2014-Jul-26 23:18N 43°14' E 005°12'5 6.3
2014-Jul-26 22:33N 43°16' E 005°06'6 6.2
2014-Jul-26 21:34N 43°19' E 004°59'7 6.7
2014-Jul-26 20:33N 43°23' E 004°52'3 2.5
2014-Jul-26 19:33N 43°23' E 004°48'0 0.1
2014-Jul-26 18:33N 43°23' E 004°48'0 0.0
2014-Jul-26 17:33N 43°23' E 004°48'0 0.0
2014-Jul-26 16:33N 43°23' E 004°48'0 0.0
2014-Jul-26 15:33N 43°23' E 004°48'0 0.0
2014-Jul-26 14:33N 43°23' E 004°48'  
2014-Jul-22 20:06N 43°23' E 004°48'0 0.1
2014-Jul-22 19:33N 43°23' E 004°49'4 4.2
2014-Jul-22 18:34N 43°24' E 004°54'5 5.1
2014-Jul-22 17:33N 43°20' E 004°59'5 5.3
2014-Jul-22 16:33N 43°17' E 005°05'6 5.5
2014-Jul-22 15:34N 43°14' E 005°11'5 5.0
2014-Jul-22 14:33N 43°11' E 005°17'21 6.7
2014-Jul-22 11:29N 43°03' E 005°43'6 6.8
2014-Jul-22 10:33N 43°00' E 005°51'7 6.6
2014-Jul-22 09:33N 42°58' E 005°59'7 7.0
2014-Jul-22 08:33N 42°56' E 006°09'7 7.0
2014-Jul-22 07:33N 42°56' E 006°18'6 6.4
2014-Jul-22 06:34N 42°58' E 006°26'9 8.8
2014-Jul-22 05:33N 43°03' E 006°36'9 9.3
2014-Jul-22 04:33N 43°08' E 006°47'9 8.9
2014-Jul-22 03:33N 43°14' E 006°57'8 8.5
2014-Jul-22 02:33N 43°18' E 007°07'9 8.6
2014-Jul-22 01:28N 43°23' E 007°18'16 8.6
2014-Jul-21 23:33N 43°32' E 007°36'60 8.4
2014-Jul-21 16:27N 44°17' E 008°32'3 2.9
2014-Jul-21 15:32N 44°19' E 008°30'0 0.0
2014-Jul-21 14:33N 44°19' E 008°30'0 0.0
2014-Jul-21 11:33N 44°19' E 008°30'0 0.0
2014-Jul-21 04:33N 44°19' E 008°30'3 2.5
2014-Jul-21 03:33N 44°17' E 008°32'7 6.6
2014-Jul-21 02:34N 44°10' E 008°30'7 7.1
2014-Jul-21 01:34N 44°04' E 008°25'8 7.2
2014-Jul-21 00:26N 43°57' E 008°19'6 7.2
2014-Jul-20 23:33N 43°52' E 008°15'39 7.3
2014-Jul-20 18:09N 43°29' E 007°30'7 7.1
2014-Jul-20 17:05N 43°25' E 007°21'5 7.1
2014-Jul-20 16:21N 43°22' E 007°15'5 6.8
2014-Jul-20 15:33N 43°19' E 007°09'6 6.3
2014-Jul-20 14:32N 43°15' E 007°02'6 5.7
2014-Jul-20 13:33N 43°12' E 006°55'6 5.7
2014-Jul-20 12:33N 43°09' E 006°49'6 6.1
2014-Jul-20 11:33N 43°06' E 006°42'6 6.2
2014-Jul-20 10:33N 43°03' E 006°35'6 6.2
2014-Jul-20 09:34N 42°59' E 006°27'6 6.0
2014-Jul-20 08:33N 42°58' E 006°20'7 6.5
2014-Jul-20 07:33N 42°58' E 006°11'7 7.3
2014-Jul-20 06:34N 42°60' E 006°01'8 7.6
2014-Jul-20 05:33N 43°02' E 005°51'7 7.3
2014-Jul-20 04:33N 43°04' E 005°42'8 6.8
2014-Jul-20 03:26N 43°07' E 005°32'6 6.9
2014-Jul-20 02:33N 43°09' E 005°24'6 6.3
2014-Jul-20 01:33N 43°12' E 005°17'6 6.3
2014-Jul-20 00:33N 43°15' E 005°09'6 6.2
2014-Jul-19 23:34N 43°18' E 005°02'5 5.1
2014-Jul-19 22:34N 43°22' E 004°57'6 6.4
2014-Jul-19 21:33N 43°23' E 004°49'  

Dump ship's entire track history